Terminal Aerodrome Forecast
Issued by NWS Charleston, WV

Current Version | Previous Version | Graphics & Text | Print | Product List | Glossary On
Versions: 1 2 3 4 5 6 7 8 9 10 11 12 13 14 15 16 17 18 19 20 21 22 23 24 25
000
FTUS41 KRLX 262000 AAA
TAFCRW
TAF AMD
KCRW 262056Z 2621/2718 27011G17KT 4SM -SN BR OVC006
     FM262300 29007KT 5SM -SN BR OVC008
     FM270200 30006KT 6SM BR OVC008
     FM271000 31004KT P6SM BKN008=

USA.gov is the U.S. government's official web portal to all federal, state and local government web resources and services.